sensor_id;sensor_type;location;lat;lon;timestamp;P1;durP1;ratioP1;P2;durP2;ratioP2
42600;SDS011;28229;48.856;9.088;2024-02-26T00:00:48;13.80;;;11.53;;
42600;SDS011;28229;48.856;9.088;2024-02-26T00:03:14;5.10;;;4.20;;
42600;SDS011;28229;48.856;9.088;2024-02-26T00:05:40;5.63;;;4.00;;
42600;SDS011;28229;48.856;9.088;2024-02-26T00:08:06;5.03;;;3.00;;
42600;SDS011;28229;48.856;9.088;2024-02-26T00:10:33;3.10;;;2.70;;
42600;SDS011;28229;48.856;9.088;2024-02-26T00:12:59;3.67;;;2.43;;
42600;SDS011;28229;48.856;9.088;2024-02-26T00:15:25;3.37;;;2.60;;
42600;SDS011;28229;48.856;9.088;2024-02-26T00:17:51;4.00;;;2.70;;
42600;SDS011;28229;48.856;9.088;2024-02-26T00:20:18;2.73;;;2.53;;
42600;SDS011;28229;48.856;9.088;2024-02-26T00:22:44;4.73;;;2.80;;
42600;SDS011;28229;48.856;9.088;2024-02-26T00:25:10;3.10;;;2.77;;
42600;SDS011;28229;48.856;9.088;2024-02-26T00:27:38;3.13;;;2.73;;
42600;SDS011;28229;48.856;9.088;2024-02-26T00:30:06;4.03;;;3.10;;
42600;SDS011;28229;48.856;9.088;2024-02-26T00:32:32;3.30;;;2.90;;
42600;SDS011;28229;48.856;9.088;2024-02-26T00:34:59;3.43;;;2.80;;
42600;SDS011;28229;48.856;9.088;2024-02-26T00:37:25;3.47;;;2.70;;
42600;SDS011;28229;48.856;9.088;2024-02-26T00:39:51;3.30;;;2.50;;
42600;SDS011;28229;48.856;9.088;2024-02-26T00:42:19;3.10;;;2.77;;
42600;SDS011;28229;48.856;9.088;2024-02-26T00:44:45;3.07;;;2.77;;
42600;SDS011;28229;48.856;9.088;2024-02-26T00:47:11;3.00;;;2.70;;
42600;SDS011;28229;48.856;9.088;2024-02-26T00:49:37;3.27;;;2.60;;
42600;SDS011;28229;48.856;9.088;2024-02-26T00:52:03;3.87;;;2.93;;
42600;SDS011;28229;48.856;9.088;2024-02-26T00:54:30;4.40;;;2.80;;
42600;SDS011;28229;48.856;9.088;2024-02-26T00:56:56;3.80;;;2.90;;
42600;SDS011;28229;48.856;9.088;2024-02-26T00:59:22;3.47;;;2.60;;
42600;SDS011;28229;48.856;9.088;2024-02-26T01:01:48;3.10;;;2.80;;
42600;SDS011;28229;48.856;9.088;2024-02-26T01:04:14;3.13;;;2.77;;
42600;SDS011;28229;48.856;9.088;2024-02-26T01:06:40;3.93;;;2.90;;
42600;SDS011;28229;48.856;9.088;2024-02-26T01:09:06;3.70;;;2.60;;
42600;SDS011;28229;48.856;9.088;2024-02-26T01:11:34;5.43;;;2.70;;
42600;SDS011;28229;48.856;9.088;2024-02-26T01:14:00;3.67;;;2.93;;
42600;SDS011;28229;48.856;9.088;2024-02-26T01:16:26;4.07;;;2.70;;
42600;SDS011;28229;48.856;9.088;2024-02-26T01:18:55;3.50;;;2.80;;
42600;SDS011;28229;48.856;9.088;2024-02-26T01:21:21;3.77;;;3.03;;
42600;SDS011;28229;48.856;9.088;2024-02-26T01:23:47;2.73;;;2.53;;
42600;SDS011;28229;48.856;9.088;2024-02-26T01:26:13;4.63;;;3.10;;
42600;SDS011;28229;48.856;9.088;2024-02-26T01:28:39;3.10;;;2.80;;
42600;SDS011;28229;48.856;9.088;2024-02-26T01:31:06;3.50;;;2.90;;
42600;SDS011;28229;48.856;9.088;2024-02-26T01:33:34;3.43;;;2.80;;
42600;SDS011;28229;48.856;9.088;2024-02-26T01:36:00;3.00;;;2.37;;
42600;SDS011;28229;48.856;9.088;2024-02-26T01:38:27;3.13;;;2.83;;
42600;SDS011;28229;48.856;9.088;2024-02-26T01:40:53;3.70;;;2.60;;
42600;SDS011;28229;48.856;9.088;2024-02-26T01:43:20;3.40;;;2.87;;
42600;SDS011;28229;48.856;9.088;2024-02-26T01:45:46;4.63;;;2.80;;
42600;SDS011;28229;48.856;9.088;2024-02-26T01:48:12;3.63;;;2.87;;
42600;SDS011;28229;48.856;9.088;2024-02-26T01:50:38;3.70;;;2.70;;
42600;SDS011;28229;48.856;9.088;2024-02-26T01:53:06;3.40;;;2.83;;
42600;SDS011;28229;48.856;9.088;2024-02-26T01:55:33;3.63;;;2.60;;
42600;SDS011;28229;48.856;9.088;2024-02-26T01:58:00;3.23;;;2.77;;
42600;SDS011;28229;48.856;9.088;2024-02-26T02:00:26;3.10;;;2.80;;
42600;SDS011;28229;48.856;9.088;2024-02-26T02:02:53;2.97;;;2.70;;
42600;SDS011;28229;48.856;9.088;2024-02-26T02:05:21;3.53;;;3.10;;
42600;SDS011;28229;48.856;9.088;2024-02-26T02:07:48;3.30;;;3.00;;
42600;SDS011;28229;48.856;9.088;2024-02-26T02:10:15;4.90;;;2.83;;
42600;SDS011;28229;48.856;9.088;2024-02-26T02:12:43;3.63;;;2.83;;
42600;SDS011;28229;48.856;9.088;2024-02-26T02:15:10;2.97;;;2.67;;
42600;SDS011;28229;48.856;9.088;2024-02-26T02:17:36;3.17;;;2.87;;
42600;SDS011;28229;48.856;9.088;2024-02-26T02:20:02;3.20;;;2.63;;
42600;SDS011;28229;48.856;9.088;2024-02-26T02:22:29;4.40;;;2.80;;
42600;SDS011;28229;48.856;9.088;2024-02-26T02:24:57;3.00;;;2.70;;
42600;SDS011;28229;48.856;9.088;2024-02-26T02:27:24;3.00;;;2.80;;
42600;SDS011;28229;48.856;9.088;2024-02-26T02:29:51;4.43;;;2.70;;
42600;SDS011;28229;48.856;9.088;2024-02-26T02:32:18;3.53;;;2.73;;
42600;SDS011;28229;48.856;9.088;2024-02-26T02:34:45;4.20;;;2.73;;
42600;SDS011;28229;48.856;9.088;2024-02-26T02:37:11;3.13;;;2.63;;
42600;SDS011;28229;48.856;9.088;2024-02-26T02:39:37;3.00;;;2.70;;
42600;SDS011;28229;48.856;9.088;2024-02-26T02:42:09;3.33;;;2.77;;
42600;SDS011;28229;48.856;9.088;2024-02-26T02:44:35;2.80;;;2.60;;
42600;SDS011;28229;48.856;9.088;2024-02-26T02:47:01;3.80;;;3.07;;
42600;SDS011;28229;48.856;9.088;2024-02-26T02:49:27;2.73;;;2.53;;
42600;SDS011;28229;48.856;9.088;2024-02-26T02:51:53;3.77;;;2.97;;
42600;SDS011;28229;48.856;9.088;2024-02-26T02:54:20;3.53;;;2.90;;
42600;SDS011;28229;48.856;9.088;2024-02-26T02:56:46;2.90;;;2.60;;
42600;SDS011;28229;48.856;9.088;2024-02-26T02:59:12;4.10;;;2.80;;
42600;SDS011;28229;48.856;9.088;2024-02-26T03:01:38;3.10;;;2.80;;
42600;SDS011;28229;48.856;9.088;2024-02-26T03:04:04;3.00;;;2.70;;
42600;SDS011;28229;48.856;9.088;2024-02-26T03:06:31;3.40;;;3.10;;
42600;SDS011;28229;48.856;9.088;2024-02-26T03:08:57;2.83;;;2.60;;
42600;SDS011;28229;48.856;9.088;2024-02-26T03:11:23;3.27;;;2.70;;
42600;SDS011;28229;48.856;9.088;2024-02-26T03:13:49;2.90;;;2.70;;
42600;SDS011;28229;48.856;9.088;2024-02-26T03:16:16;2.57;;;2.33;;
42600;SDS011;28229;48.856;9.088;2024-02-26T03:18:43;4.33;;;2.87;;
42600;SDS011;28229;48.856;9.088;2024-02-26T03:21:09;3.17;;;2.87;;
42600;SDS011;28229;48.856;9.088;2024-02-26T03:23:35;3.27;;;2.93;;
42600;SDS011;28229;48.856;9.088;2024-02-26T03:26:03;3.03;;;2.73;;
42600;SDS011;28229;48.856;9.088;2024-02-26T03:28:29;4.00;;;2.73;;
42600;SDS011;28229;48.856;9.088;2024-02-26T03:30:59;3.10;;;2.80;;
42600;SDS011;28229;48.856;9.088;2024-02-26T03:33:25;3.20;;;2.90;;
42600;SDS011;28229;48.856;9.088;2024-02-26T03:35:52;3.07;;;2.77;;
42600;SDS011;28229;48.856;9.088;2024-02-26T03:38:18;3.03;;;2.20;;
42600;SDS011;28229;48.856;9.088;2024-02-26T03:40:44;2.50;;;2.23;;
42600;SDS011;28229;48.856;9.088;2024-02-26T03:43:10;3.23;;;2.90;;
42600;SDS011;28229;48.856;9.088;2024-02-26T03:45:36;2.80;;;2.50;;
42600;SDS011;28229;48.856;9.088;2024-02-26T03:48:02;3.00;;;2.37;;
42600;SDS011;28229;48.856;9.088;2024-02-26T03:50:29;3.23;;;2.57;;
42600;SDS011;28229;48.856;9.088;2024-02-26T03:52:55;2.00;;;1.80;;
42600;SDS011;28229;48.856;9.088;2024-02-26T03:55:23;2.40;;;2.20;;
42600;SDS011;28229;48.856;9.088;2024-02-26T03:57:51;2.73;;;2.40;;
42600;SDS011;28229;48.856;9.088;2024-02-26T04:00:18;2.50;;;2.30;;
42600;SDS011;28229;48.856;9.088;2024-02-26T04:02:44;2.30;;;2.10;;
42600;SDS011;28229;48.856;9.088;2024-02-26T04:05:10;2.60;;;2.10;;
42600;SDS011;28229;48.856;9.088;2024-02-26T04:07:37;3.17;;;2.03;;
42600;SDS011;28229;48.856;9.088;2024-02-26T04:10:03;2.53;;;2.27;;
42600;SDS011;28229;48.856;9.088;2024-02-26T04:12:35;2.17;;;1.97;;
42600;SDS011;28229;48.856;9.088;2024-02-26T04:15:01;4.33;;;2.40;;
42600;SDS011;28229;48.856;9.088;2024-02-26T04:17:27;2.27;;;2.07;;
42600;SDS011;28229;48.856;9.088;2024-02-26T04:19:53;2.10;;;1.90;;
42600;SDS011;28229;48.856;9.088;2024-02-26T04:22:19;1.90;;;1.80;;
42600;SDS011;28229;48.856;9.088;2024-02-26T04:24:45;3.03;;;1.90;;
42600;SDS011;28229;48.856;9.088;2024-02-26T04:27:12;1.80;;;1.70;;
42600;SDS011;28229;48.856;9.088;2024-02-26T04:29:38;2.03;;;1.80;;
42600;SDS011;28229;48.856;9.088;2024-02-26T04:32:04;2.40;;;1.70;;
42600;SDS011;28229;48.856;9.088;2024-02-26T04:34:30;2.17;;;1.80;;
42600;SDS011;28229;48.856;9.088;2024-02-26T04:36:56;2.03;;;1.83;;
42600;SDS011;28229;48.856;9.088;2024-02-26T04:39:23;2.13;;;1.93;;
42600;SDS011;28229;48.856;9.088;2024-02-26T04:41:49;2.23;;;1.77;;
42600;SDS011;28229;48.856;9.088;2024-02-26T04:44:15;2.27;;;1.60;;
42600;SDS011;28229;48.856;9.088;2024-02-26T04:46:41;1.50;;;1.40;;
42600;SDS011;28229;48.856;9.088;2024-02-26T04:49:07;2.10;;;1.80;;
42600;SDS011;28229;48.856;9.088;2024-02-26T04:51:33;2.20;;;1.70;;
42600;SDS011;28229;48.856;9.088;2024-02-26T04:53:59;2.17;;;1.57;;
42600;SDS011;28229;48.856;9.088;2024-02-26T04:56:26;2.50;;;2.00;;
42600;SDS011;28229;48.856;9.088;2024-02-26T04:58:52;1.60;;;1.50;;
42600;SDS011;28229;48.856;9.088;2024-02-26T05:01:18;2.40;;;1.70;;
42600;SDS011;28229;48.856;9.088;2024-02-26T05:03:44;2.90;;;1.67;;
42600;SDS011;28229;48.856;9.088;2024-02-26T05:06:10;2.13;;;1.60;;
42600;SDS011;28229;48.856;9.088;2024-02-26T05:08:36;2.13;;;1.80;;
42600;SDS011;28229;48.856;9.088;2024-02-26T05:11:04;3.00;;;1.90;;
42600;SDS011;28229;48.856;9.088;2024-02-26T05:13:31;2.73;;;1.97;;
42600;SDS011;28229;48.856;9.088;2024-02-26T05:15:58;3.23;;;2.30;;
42600;SDS011;28229;48.856;9.088;2024-02-26T05:18:24;3.03;;;2.70;;
42600;SDS011;28229;48.856;9.088;2024-02-26T05:20:50;3.10;;;2.67;;
42600;SDS011;28229;48.856;9.088;2024-02-26T05:23:16;3.53;;;2.70;;
42600;SDS011;28229;48.856;9.088;2024-02-26T05:25:42;4.40;;;3.03;;
42600;SDS011;28229;48.856;9.088;2024-02-26T05:28:11;2.73;;;2.53;;
42600;SDS011;28229;48.856;9.088;2024-02-26T05:30:37;2.27;;;2.07;;
42600;SDS011;28229;48.856;9.088;2024-02-26T05:33:05;2.27;;;2.07;;
42600;SDS011;28229;48.856;9.088;2024-02-26T05:35:31;2.20;;;2.00;;
42600;SDS011;28229;48.856;9.088;2024-02-26T05:37:58;2.20;;;2.00;;
42600;SDS011;28229;48.856;9.088;2024-02-26T05:40:24;2.57;;;1.90;;
42600;SDS011;28229;48.856;9.088;2024-02-26T05:42:50;2.37;;;2.00;;
42600;SDS011;28229;48.856;9.088;2024-02-26T05:45:16;2.20;;;2.00;;
42600;SDS011;28229;48.856;9.088;2024-02-26T05:47:42;2.10;;;1.90;;
42600;SDS011;28229;48.856;9.088;2024-02-26T05:50:09;3.20;;;2.30;;
42600;SDS011;28229;48.856;9.088;2024-02-26T05:52:37;2.30;;;2.10;;
42600;SDS011;28229;48.856;9.088;2024-02-26T05:55:06;2.33;;;2.10;;
42600;SDS011;28229;48.856;9.088;2024-02-26T05:57:33;2.30;;;1.80;;
42600;SDS011;28229;48.856;9.088;2024-02-26T06:00:00;2.03;;;1.80;;
42600;SDS011;28229;48.856;9.088;2024-02-26T06:02:37;2.40;;;2.00;;
42600;SDS011;28229;48.856;9.088;2024-02-26T06:05:04;2.97;;;2.10;;
42600;SDS011;28229;48.856;9.088;2024-02-26T06:07:30;4.30;;;3.00;;
42600;SDS011;28229;48.856;9.088;2024-02-26T06:09:56;5.13;;;2.70;;
42600;SDS011;28229;48.856;9.088;2024-02-26T06:12:22;5.07;;;2.30;;
42600;SDS011;28229;48.856;9.088;2024-02-26T06:14:49;2.33;;;2.07;;
42600;SDS011;28229;48.856;9.088;2024-02-26T06:17:15;2.63;;;2.20;;
42600;SDS011;28229;48.856;9.088;2024-02-26T06:19:42;3.37;;;2.00;;
42600;SDS011;28229;48.856;9.088;2024-02-26T06:22:08;3.27;;;2.20;;
42600;SDS011;28229;48.856;9.088;2024-02-26T06:24:34;3.80;;;2.40;;
42600;SDS011;28229;48.856;9.088;2024-02-26T06:27:01;2.23;;;2.03;;
42600;SDS011;28229;48.856;9.088;2024-02-26T06:29:27;3.30;;;2.50;;
42600;SDS011;28229;48.856;9.088;2024-02-26T06:31:55;3.50;;;2.57;;
42600;SDS011;28229;48.856;9.088;2024-02-26T06:34:21;4.23;;;3.20;;
42600;SDS011;28229;48.856;9.088;2024-02-26T06:36:47;4.40;;;3.03;;
42600;SDS011;28229;48.856;9.088;2024-02-26T06:39:14;4.13;;;3.07;;
42600;SDS011;28229;48.856;9.088;2024-02-26T06:55:59;3.10;;;2.80;;
42600;SDS011;28229;48.856;9.088;2024-02-26T06:58:26;4.60;;;2.60;;
42600;SDS011;28229;48.856;9.088;2024-02-26T07:00:54;4.87;;;2.63;;
42600;SDS011;28229;48.856;9.088;2024-02-26T07:03:20;3.00;;;2.70;;
42600;SDS011;28229;48.856;9.088;2024-02-26T07:05:48;2.90;;;2.63;;
42600;SDS011;28229;48.856;9.088;2024-02-26T07:08:14;3.60;;;2.93;;
42600;SDS011;28229;48.856;9.088;2024-02-26T07:10:40;3.63;;;2.70;;
42600;SDS011;28229;48.856;9.088;2024-02-26T07:13:07;3.30;;;2.97;;
42600;SDS011;28229;48.856;9.088;2024-02-26T07:15:33;4.13;;;3.53;;
42600;SDS011;28229;48.856;9.088;2024-02-26T07:18:00;4.27;;;3.47;;
42600;SDS011;28229;48.856;9.088;2024-02-26T07:20:29;5.07;;;3.73;;
42600;SDS011;28229;48.856;9.088;2024-02-26T07:22:56;6.30;;;4.30;;
42600;SDS011;28229;48.856;9.088;2024-02-26T07:25:23;5.53;;;3.70;;
42600;SDS011;28229;48.856;9.088;2024-02-26T07:27:50;3.23;;;2.73;;
42600;SDS011;28229;48.856;9.088;2024-02-26T07:30:16;3.60;;;2.80;;
42600;SDS011;28229;48.856;9.088;2024-02-26T07:32:42;5.07;;;2.70;;
42600;SDS011;28229;48.856;9.088;2024-02-26T07:35:09;3.50;;;2.87;;
42600;SDS011;28229;48.856;9.088;2024-02-26T07:37:35;3.60;;;3.17;;
42600;SDS011;28229;48.856;9.088;2024-02-26T07:40:02;4.10;;;3.17;;
42600;SDS011;28229;48.856;9.088;2024-02-26T07:42:29;4.03;;;3.20;;
42600;SDS011;28229;48.856;9.088;2024-02-26T07:44:55;3.10;;;2.90;;
42600;SDS011;28229;48.856;9.088;2024-02-26T07:47:21;3.40;;;2.83;;
42600;SDS011;28229;48.856;9.088;2024-02-26T07:49:47;4.27;;;2.67;;
42600;SDS011;28229;48.856;9.088;2024-02-26T07:52:13;2.43;;;2.23;;
42600;SDS011;28229;48.856;9.088;2024-02-26T07:54:39;2.97;;;2.63;;
42600;SDS011;28229;48.856;9.088;2024-02-26T07:57:06;4.43;;;2.80;;
42600;SDS011;28229;48.856;9.088;2024-02-26T07:59:33;3.37;;;2.80;;
42600;SDS011;28229;48.856;9.088;2024-02-26T08:01:59;2.43;;;2.20;;
42600;SDS011;28229;48.856;9.088;2024-02-26T08:04:26;2.47;;;2.27;;
42600;SDS011;28229;48.856;9.088;2024-02-26T08:06:52;3.37;;;2.00;;
42600;SDS011;28229;48.856;9.088;2024-02-26T08:09:18;2.00;;;1.80;;
42600;SDS011;28229;48.856;9.088;2024-02-26T08:11:44;2.50;;;2.00;;
42600;SDS011;28229;48.856;9.088;2024-02-26T08:14:11;3.47;;;2.40;;
42600;SDS011;28229;48.856;9.088;2024-02-26T08:16:37;3.63;;;2.60;;
42600;SDS011;28229;48.856;9.088;2024-02-26T08:19:03;3.10;;;2.23;;
42600;SDS011;28229;48.856;9.088;2024-02-26T08:21:29;5.00;;;2.70;;
42600;SDS011;28229;48.856;9.088;2024-02-26T08:23:56;4.07;;;2.67;;
42600;SDS011;28229;48.856;9.088;2024-02-26T08:26:22;3.73;;;2.60;;
42600;SDS011;28229;48.856;9.088;2024-02-26T08:28:49;4.50;;;3.20;;
42600;SDS011;28229;48.856;9.088;2024-02-26T08:31:17;4.07;;;2.87;;
42600;SDS011;28229;48.856;9.088;2024-02-26T08:33:43;4.83;;;2.60;;
42600;SDS011;28229;48.856;9.088;2024-02-26T08:36:09;3.23;;;2.80;;
42600;SDS011;28229;48.856;9.088;2024-02-26T08:38:37;3.10;;;2.80;;
42600;SDS011;28229;48.856;9.088;2024-02-26T08:41:04;3.10;;;2.70;;
42600;SDS011;28229;48.856;9.088;2024-02-26T08:43:30;3.80;;;2.73;;
42600;SDS011;28229;48.856;9.088;2024-02-26T08:45:57;3.80;;;3.10;;
42600;SDS011;28229;48.856;9.088;2024-02-26T08:48:23;4.63;;;3.00;;
42600;SDS011;28229;48.856;9.088;2024-02-26T08:50:50;5.03;;;3.43;;
42600;SDS011;28229;48.856;9.088;2024-02-26T08:53:16;4.80;;;3.20;;
42600;SDS011;28229;48.856;9.088;2024-02-26T08:55:42;6.40;;;3.43;;
42600;SDS011;28229;48.856;9.088;2024-02-26T08:58:08;5.07;;;3.63;;
42600;SDS011;28229;48.856;9.088;2024-02-26T09:00:34;3.93;;;3.40;;
42600;SDS011;28229;48.856;9.088;2024-02-26T09:03:01;3.67;;;3.03;;
42600;SDS011;28229;48.856;9.088;2024-02-26T09:05:27;5.03;;;3.00;;
42600;SDS011;28229;48.856;9.088;2024-02-26T09:07:53;4.27;;;3.10;;
42600;SDS011;28229;48.856;9.088;2024-02-26T09:10:20;4.13;;;2.80;;
42600;SDS011;28229;48.856;9.088;2024-02-26T09:12:46;3.20;;;2.90;;
42600;SDS011;28229;48.856;9.088;2024-02-26T09:15:12;6.47;;;3.17;;
42600;SDS011;28229;48.856;9.088;2024-02-26T09:17:38;8.37;;;3.50;;
42600;SDS011;28229;48.856;9.088;2024-02-26T09:20:05;6.93;;;3.60;;
42600;SDS011;28229;48.856;9.088;2024-02-26T09:22:31;6.07;;;3.67;;
42600;SDS011;28229;48.856;9.088;2024-02-26T09:24:58;5.40;;;3.10;;
42600;SDS011;28229;48.856;9.088;2024-02-26T09:27:24;3.53;;;2.80;;
42600;SDS011;28229;48.856;9.088;2024-02-26T09:29:50;3.23;;;2.70;;
42600;SDS011;28229;48.856;9.088;2024-02-26T09:32:16;3.70;;;2.80;;
42600;SDS011;28229;48.856;9.088;2024-02-26T09:34:43;3.90;;;2.77;;
42600;SDS011;28229;48.856;9.088;2024-02-26T09:37:09;3.13;;;2.70;;
42600;SDS011;28229;48.856;9.088;2024-02-26T09:39:35;3.27;;;2.70;;
42600;SDS011;28229;48.856;9.088;2024-02-26T09:42:03;3.87;;;3.00;;
42600;SDS011;28229;48.856;9.088;2024-02-26T09:44:32;3.53;;;2.77;;
42600;SDS011;28229;48.856;9.088;2024-02-26T09:47:04;3.90;;;2.67;;
42600;SDS011;28229;48.856;9.088;2024-02-26T09:49:32;3.73;;;2.47;;
42600;SDS011;28229;48.856;9.088;2024-02-26T09:52:00;5.97;;;4.17;;
42600;SDS011;28229;48.856;9.088;2024-02-26T09:54:28;3.53;;;3.03;;
42600;SDS011;28229;48.856;9.088;2024-02-26T09:56:59;5.20;;;3.50;;
42600;SDS011;28229;48.856;9.088;2024-02-26T09:59:26;3.30;;;3.00;;
42600;SDS011;28229;48.856;9.088;2024-02-26T10:01:54;4.13;;;2.97;;
42600;SDS011;28229;48.856;9.088;2024-02-26T10:04:22;3.67;;;2.90;;
42600;SDS011;28229;48.856;9.088;2024-02-26T10:06:49;2.90;;;2.60;;
42600;SDS011;28229;48.856;9.088;2024-02-26T10:09:16;2.90;;;2.60;;
42600;SDS011;28229;48.856;9.088;2024-02-26T10:11:43;3.00;;;2.50;;
42600;SDS011;28229;48.856;9.088;2024-02-26T10:14:09;4.20;;;2.77;;
42600;SDS011;28229;48.856;9.088;2024-02-26T10:16:35;5.07;;;3.13;;
42600;SDS011;28229;48.856;9.088;2024-02-26T10:19:02;3.17;;;2.77;;
42600;SDS011;28229;48.856;9.088;2024-02-26T10:21:28;3.10;;;2.40;;
42600;SDS011;28229;48.856;9.088;2024-02-26T10:23:55;2.60;;;2.40;;
42600;SDS011;28229;48.856;9.088;2024-02-26T10:26:21;3.10;;;2.50;;
42600;SDS011;28229;48.856;9.088;2024-02-26T10:28:47;4.10;;;2.27;;
42600;SDS011;28229;48.856;9.088;2024-02-26T10:31:14;2.93;;;2.10;;
42600;SDS011;28229;48.856;9.088;2024-02-26T10:33:41;3.17;;;2.20;;
42600;SDS011;28229;48.856;9.088;2024-02-26T10:36:08;2.73;;;1.77;;
42600;SDS011;28229;48.856;9.088;2024-02-26T10:38:35;2.13;;;1.90;;
42600;SDS011;28229;48.856;9.088;2024-02-26T10:41:03;1.90;;;1.70;;
42600;SDS011;28229;48.856;9.088;2024-02-26T10:43:30;1.80;;;1.70;;
42600;SDS011;28229;48.856;9.088;2024-02-26T10:45:57;2.03;;;1.83;;
42600;SDS011;28229;48.856;9.088;2024-02-26T10:48:24;2.63;;;1.90;;
42600;SDS011;28229;48.856;9.088;2024-02-26T10:50:50;2.20;;;2.00;;
42600;SDS011;28229;48.856;9.088;2024-02-26T10:53:17;2.10;;;1.90;;
42600;SDS011;28229;48.856;9.088;2024-02-26T10:55:55;2.07;;;1.87;;
42600;SDS011;28229;48.856;9.088;2024-02-26T10:58:24;2.47;;;2.03;;
42600;SDS011;28229;48.856;9.088;2024-02-26T11:00:51;2.13;;;1.93;;
42600;SDS011;28229;48.856;9.088;2024-02-26T11:03:18;2.30;;;2.07;;
42600;SDS011;28229;48.856;9.088;2024-02-26T11:05:47;2.93;;;2.10;;
42600;SDS011;28229;48.856;9.088;2024-02-26T11:08:14;1.90;;;1.80;;
42600;SDS011;28229;48.856;9.088;2024-02-26T11:10:44;2.40;;;2.10;;
42600;SDS011;28229;48.856;9.088;2024-02-26T11:13:14;2.47;;;2.00;;
42600;SDS011;28229;48.856;9.088;2024-02-26T11:15:41;1.90;;;1.70;;
42600;SDS011;28229;48.856;9.088;2024-02-26T11:18:09;3.30;;;2.03;;
42600;SDS011;28229;48.856;9.088;2024-02-26T11:20:38;2.10;;;1.90;;
42600;SDS011;28229;48.856;9.088;2024-02-26T11:23:06;2.20;;;2.03;;
42600;SDS011;28229;48.856;9.088;2024-02-26T11:25:32;3.70;;;2.10;;
42600;SDS011;28229;48.856;9.088;2024-02-26T11:28:00;2.07;;;1.80;;
42600;SDS011;28229;48.856;9.088;2024-02-26T11:30:30;4.83;;;1.90;;
42600;SDS011;28229;48.856;9.088;2024-02-26T11:32:58;1.80;;;1.70;;
42600;SDS011;28229;48.856;9.088;2024-02-26T11:35:25;1.93;;;1.67;;
42600;SDS011;28229;48.856;9.088;2024-02-26T11:37:52;1.50;;;1.40;;
42600;SDS011;28229;48.856;9.088;2024-02-26T11:40:20;1.50;;;1.40;;
42600;SDS011;28229;48.856;9.088;2024-02-26T11:42:47;2.37;;;1.40;;
42600;SDS011;28229;48.856;9.088;2024-02-26T11:48:12;2.27;;;1.20;;
42600;SDS011;28229;48.856;9.088;2024-02-26T11:50:49;1.53;;;1.43;;
42600;SDS011;28229;48.856;9.088;2024-02-26T11:58:40;1.57;;;1.40;;
42600;SDS011;28229;48.856;9.088;2024-02-26T12:04:05;1.50;;;1.40;;
42600;SDS011;28229;48.856;9.088;2024-02-26T12:06:45;3.63;;;2.30;;
42600;SDS011;28229;48.856;9.088;2024-02-26T12:09:31;1.70;;;1.60;;
42600;SDS011;28229;48.856;9.088;2024-02-26T12:14:56;1.23;;;1.17;;
42600;SDS011;28229;48.856;9.088;2024-02-26T12:17:24;1.30;;;1.20;;
42600;SDS011;28229;48.856;9.088;2024-02-26T12:19:51;1.30;;;1.20;;
42600;SDS011;28229;48.856;9.088;2024-02-26T12:22:19;2.00;;;1.90;;
42600;SDS011;28229;48.856;9.088;2024-02-26T12:24:45;1.63;;;1.23;;
42600;SDS011;28229;48.856;9.088;2024-02-26T12:27:12;1.20;;;1.10;;
42600;SDS011;28229;48.856;9.088;2024-02-26T12:29:39;1.30;;;1.13;;
42600;SDS011;28229;48.856;9.088;2024-02-26T12:32:05;1.20;;;1.20;;
42600;SDS011;28229;48.856;9.088;2024-02-26T12:34:32;2.03;;;1.60;;
42600;SDS011;28229;48.856;9.088;2024-02-26T12:36:58;1.67;;;1.30;;
42600;SDS011;28229;48.856;9.088;2024-02-26T12:39:25;1.20;;;1.10;;
42600;SDS011;28229;48.856;9.088;2024-02-26T12:41:52;1.53;;;1.30;;
42600;SDS011;28229;48.856;9.088;2024-02-26T12:44:18;1.33;;;1.23;;
42600;SDS011;28229;48.856;9.088;2024-02-26T12:46:59;1.03;;;1.00;;
42600;SDS011;28229;48.856;9.088;2024-02-26T12:49:26;1.17;;;1.10;;
42600;SDS011;28229;48.856;9.088;2024-02-26T12:51:55;1.67;;;1.30;;
42600;SDS011;28229;48.856;9.088;2024-02-26T12:54:27;1.30;;;1.10;;
42600;SDS011;28229;48.856;9.088;2024-02-26T12:56:55;1.80;;;1.13;;
42600;SDS011;28229;48.856;9.088;2024-02-26T12:59:21;1.40;;;1.30;;
42600;SDS011;28229;48.856;9.088;2024-02-26T13:01:47;2.27;;;1.23;;
42600;SDS011;28229;48.856;9.088;2024-02-26T13:04:14;1.60;;;1.37;;
42600;SDS011;28229;48.856;9.088;2024-02-26T13:06:40;1.47;;;1.37;;
42600;SDS011;28229;48.856;9.088;2024-02-26T13:09:06;2.90;;;1.30;;
42600;SDS011;28229;48.856;9.088;2024-02-26T13:11:35;3.33;;;1.50;;
42600;SDS011;28229;48.856;9.088;2024-02-26T13:14:01;2.63;;;1.30;;
42600;SDS011;28229;48.856;9.088;2024-02-26T13:16:27;1.23;;;1.10;;
42600;SDS011;28229;48.856;9.088;2024-02-26T13:18:53;1.20;;;1.10;;
42600;SDS011;28229;48.856;9.088;2024-02-26T13:21:19;1.23;;;1.10;;
42600;SDS011;28229;48.856;9.088;2024-02-26T13:23:48;2.70;;;1.10;;
42600;SDS011;28229;48.856;9.088;2024-02-26T13:26:16;2.40;;;1.10;;
42600;SDS011;28229;48.856;9.088;2024-02-26T13:28:42;1.23;;;1.13;;
42600;SDS011;28229;48.856;9.088;2024-02-26T13:31:08;1.87;;;1.67;;
42600;SDS011;28229;48.856;9.088;2024-02-26T13:33:34;2.77;;;1.70;;
42600;SDS011;28229;48.856;9.088;2024-02-26T13:36:00;1.50;;;1.40;;
42600;SDS011;28229;48.856;9.088;2024-02-26T13:38:27;4.03;;;3.20;;
42600;SDS011;28229;48.856;9.088;2024-02-26T13:40:57;4.43;;;3.93;;
42600;SDS011;28229;48.856;9.088;2024-02-26T13:43:23;2.50;;;2.30;;
42600;SDS011;28229;48.856;9.088;2024-02-26T13:45:49;2.97;;;2.67;;
42600;SDS011;28229;48.856;9.088;2024-02-26T13:48:16;1.80;;;1.70;;
42600;SDS011;28229;48.856;9.088;2024-02-26T13:50:42;1.97;;;1.60;;
42600;SDS011;28229;48.856;9.088;2024-02-26T13:53:11;2.17;;;1.80;;
42600;SDS011;28229;48.856;9.088;2024-02-26T13:55:39;1.53;;;1.40;;
42600;SDS011;28229;48.856;9.088;2024-02-26T13:58:08;1.17;;;1.13;;
42600;SDS011;28229;48.856;9.088;2024-02-26T14:00:34;0.90;;;0.80;;
42600;SDS011;28229;48.856;9.088;2024-02-26T14:03:01;0.80;;;0.80;;
42600;SDS011;28229;48.856;9.088;2024-02-26T14:05:27;1.70;;;0.93;;
42600;SDS011;28229;48.856;9.088;2024-02-26T14:07:53;1.70;;;1.60;;
42600;SDS011;28229;48.856;9.088;2024-02-26T14:10:20;2.10;;;1.90;;
42600;SDS011;28229;48.856;9.088;2024-02-26T14:12:47;1.47;;;1.37;;
42600;SDS011;28229;48.856;9.088;2024-02-26T14:15:13;1.30;;;1.20;;
42600;SDS011;28229;48.856;9.088;2024-02-26T14:17:39;1.77;;;1.40;;
42600;SDS011;28229;48.856;9.088;2024-02-26T14:20:06;1.10;;;1.00;;
42600;SDS011;28229;48.856;9.088;2024-02-26T14:22:35;1.10;;;1.00;;
42600;SDS011;28229;48.856;9.088;2024-02-26T14:25:01;1.97;;;1.40;;
42600;SDS011;28229;48.856;9.088;2024-02-26T14:27:28;1.40;;;1.30;;
42600;SDS011;28229;48.856;9.088;2024-02-26T14:29:54;1.40;;;0.80;;
42600;SDS011;28229;48.856;9.088;2024-02-26T14:32:21;1.10;;;1.10;;
42600;SDS011;28229;48.856;9.088;2024-02-26T14:34:47;0.80;;;0.80;;
42600;SDS011;28229;48.856;9.088;2024-02-26T14:37:13;0.83;;;0.83;;
42600;SDS011;28229;48.856;9.088;2024-02-26T14:39:39;2.37;;;1.40;;
42600;SDS011;28229;48.856;9.088;2024-02-26T14:42:06;1.10;;;1.10;;
42600;SDS011;28229;48.856;9.088;2024-02-26T14:44:32;0.90;;;0.80;;
42600;SDS011;28229;48.856;9.088;2024-02-26T14:46:58;0.50;;;0.50;;
42600;SDS011;28229;48.856;9.088;2024-02-26T14:49:24;0.87;;;0.87;;
42600;SDS011;28229;48.856;9.088;2024-02-26T14:51:51;1.20;;;1.10;;
42600;SDS011;28229;48.856;9.088;2024-02-26T14:54:17;0.80;;;0.80;;
42600;SDS011;28229;48.856;9.088;2024-02-26T14:56:43;0.80;;;0.80;;
42600;SDS011;28229;48.856;9.088;2024-02-26T14:59:10;0.70;;;0.70;;
42600;SDS011;28229;48.856;9.088;2024-02-26T15:01:37;0.80;;;0.70;;
42600;SDS011;28229;48.856;9.088;2024-02-26T15:04:03;0.70;;;0.70;;
42600;SDS011;28229;48.856;9.088;2024-02-26T15:06:29;1.37;;;0.87;;
42600;SDS011;28229;48.856;9.088;2024-02-26T15:08:55;1.20;;;1.10;;
42600;SDS011;28229;48.856;9.088;2024-02-26T15:11:21;1.80;;;0.80;;
42600;SDS011;28229;48.856;9.088;2024-02-26T15:13:48;0.87;;;0.87;;